Airfield :
LOGIN :

Register | Disclaimer

   EN    FR    IT 

 










Legend :    VFR   Marginal VFR   IFR   Intensive IFR   Very Intensive IFR
Visi :
Ceiling :
>= 8 km
>= 3000ft
5 to 8 km
1000 to 3000 ft
1500m to 5 km
500 to 1000 ft
800 to 1500m
200 to 500 ft
< 800m
< 200 ft
Symbols :   Thunderstorms  Fog  Heavy snow  Heavy precipitations  Wind > 20 kt
SIGMETs :     Misc.  Thunderstorms  Icing  Turbulence  Mountain Waves  Volcanic Ashes







- Airport Elevation : 512 ft
- IATA code : URO
- Download approach charts


LFOP - Rouen Vallée de Seine

CURRENT METAR :
  • 212200Z AUTO 33005KT 7000 NSC 14/12 Q1013

EXPIRED METARs :
  • 212130Z AUTO 34004KT CAVOK 15/12 Q1013
  • 212100Z AUTO 32003KT CAVOK 15/12 Q1013
  • 212030Z AUTO 36003KT CAVOK 16/12 Q1013
  • 212000Z AUTO 35003KT CAVOK 17/12 Q1012 NOSIG
  • 211930Z AUTO 01005KT CAVOK 18/13 Q1012 NOSIG

TAF TAF LFOP
Valid from the 21 at 18:00 until the 22 at 18:00 UTC


211700Z 2118/2218 33005KT CAVOK
TEMPO 2204/2207 3000 BR BKN004
ATIS : +33 2 35 80 80 34
Met : +33 2 32 86 52 80
No reported NOTAMs for that airfield.



MET'MAP, your aeronautical weather chart ! - Copyright ORBIFLY December 2007 - Disclaimer

ORBIFLY MET'MAP TEAM :

Programming & Development : Alexandra Zaïnal
Concept & Development : Baudouin d'Aumeries
Co-Development & Prog : Marc-Olivier Méhu
Technical & hardware support : Manuel Goepfert

Contact : metmap@orbifly.com




SOURCES & CREDITS :

   NOAA